sensor_id;sensor_type;location;lat;lon;timestamp;temperature;humidity
44843;DHT22;31884;52.538;13.820;2022-09-01T00:02:04;15.00;74.40
44843;DHT22;31884;52.538;13.820;2022-09-01T00:04:34;15.00;74.30
44843;DHT22;31884;52.538;13.820;2022-09-01T00:07:01;15.00;73.90
44843;DHT22;31884;52.538;13.820;2022-09-01T00:09:26;15.00;73.90
44843;DHT22;31884;52.538;13.820;2022-09-01T00:11:53;15.00;74.00
44843;DHT22;31884;52.538;13.820;2022-09-01T00:14:22;15.00;73.60
44843;DHT22;31884;52.538;13.820;2022-09-01T00:16:48;15.00;73.50
44843;DHT22;31884;52.538;13.820;2022-09-01T00:19:13;15.00;73.70
44843;DHT22;31884;52.538;13.820;2022-09-01T00:21:41;15.00;73.90
44843;DHT22;31884;52.538;13.820;2022-09-01T00:24:08;15.00;74.10
44843;DHT22;31884;52.538;13.820;2022-09-01T00:26:34;15.00;73.90
44843;DHT22;31884;52.538;13.820;2022-09-01T00:29:00;15.00;73.70
44843;DHT22;31884;52.538;13.820;2022-09-01T00:31:26;15.00;73.60
44843;DHT22;31884;52.538;13.820;2022-09-01T00:33:53;15.00;73.60
44843;DHT22;31884;52.538;13.820;2022-09-01T00:36:19;15.00;73.60
44843;DHT22;31884;52.538;13.820;2022-09-01T00:38:45;15.00;73.50
44843;DHT22;31884;52.538;13.820;2022-09-01T00:41:12;15.00;74.40
44843;DHT22;31884;52.538;13.820;2022-09-01T00:43:44;15.00;73.50
44843;DHT22;31884;52.538;13.820;2022-09-01T00:46:13;15.00;73.80
44843;DHT22;31884;52.538;13.820;2022-09-01T00:48:40;15.00;74.10
44843;DHT22;31884;52.538;13.820;2022-09-01T00:51:07;15.00;75.00
44843;DHT22;31884;52.538;13.820;2022-09-01T00:53:34;15.00;74.40
44843;DHT22;31884;52.538;13.820;2022-09-01T00:56:01;15.00;75.50
44843;DHT22;31884;52.538;13.820;2022-09-01T00:58:26;15.00;75.10
44843;DHT22;31884;52.538;13.820;2022-09-01T01:00:53;14.90;74.90
44843;DHT22;31884;52.538;13.820;2022-09-01T01:03:19;14.90;75.80
44843;DHT22;31884;52.538;13.820;2022-09-01T01:05:57;14.90;76.30
44843;DHT22;31884;52.538;13.820;2022-09-01T01:08:33;14.90;76.00
44843;DHT22;31884;52.538;13.820;2022-09-01T01:11:02;14.90;76.30
44843;DHT22;31884;52.538;13.820;2022-09-01T01:13:28;14.80;76.10
44843;DHT22;31884;52.538;13.820;2022-09-01T01:15:56;14.90;76.50
44843;DHT22;31884;52.538;13.820;2022-09-01T01:18:23;14.80;78.90
44843;DHT22;31884;52.538;13.820;2022-09-01T01:21:02;14.80;79.40
44843;DHT22;31884;52.538;13.820;2022-09-01T01:24:01;14.80;78.60
44843;DHT22;31884;52.538;13.820;2022-09-01T01:26:30;14.80;79.40
44843;DHT22;31884;52.538;13.820;2022-09-01T01:28:56;14.70;79.80
44843;DHT22;31884;52.538;13.820;2022-09-01T01:31:21;14.70;79.80
44843;DHT22;31884;52.538;13.820;2022-09-01T01:33:54;14.70;81.90
44843;DHT22;31884;52.538;13.820;2022-09-01T01:36:21;14.60;82.30
44843;DHT22;31884;52.538;13.820;2022-09-01T01:38:58;14.60;81.20
44843;DHT22;31884;52.538;13.820;2022-09-01T01:41:27;14.60;82.90
44843;DHT22;31884;52.538;13.820;2022-09-01T01:43:55;14.50;81.30
44843;DHT22;31884;52.538;13.820;2022-09-01T01:46:21;14.40;85.20
44843;DHT22;31884;52.538;13.820;2022-09-01T01:48:46;14.30;86.10
44843;DHT22;31884;52.538;13.820;2022-09-01T01:51:12;14.20;87.40
44843;DHT22;31884;52.538;13.820;2022-09-01T01:53:41;14.10;85.30
44843;DHT22;31884;52.538;13.820;2022-09-01T01:56:07;14.10;88.50
44843;DHT22;31884;52.538;13.820;2022-09-01T01:58:35;14.10;90.20
44843;DHT22;31884;52.538;13.820;2022-09-01T02:01:00;14.00;90.80
44843;DHT22;31884;52.538;13.820;2022-09-01T02:03:31;13.90;90.90
44843;DHT22;31884;52.538;13.820;2022-09-01T02:06:03;13.90;92.00
44843;DHT22;31884;52.538;13.820;2022-09-01T02:08:32;13.80;91.40
44843;DHT22;31884;52.538;13.820;2022-09-01T02:11:00;13.80;92.10
44843;DHT22;31884;52.538;13.820;2022-09-01T02:13:26;13.70;91.70
44843;DHT22;31884;52.538;13.820;2022-09-01T02:15:57;13.60;91.30
44843;DHT22;31884;52.538;13.820;2022-09-01T02:18:26;13.60;93.10
44843;DHT22;31884;52.538;13.820;2022-09-01T02:20:53;13.50;92.60
44843;DHT22;31884;52.538;13.820;2022-09-01T02:23:21;13.40;92.10
44843;DHT22;31884;52.538;13.820;2022-09-01T02:25:50;13.30;94.00
44843;DHT22;31884;52.538;13.820;2022-09-01T02:28:17;13.30;94.80
44843;DHT22;31884;52.538;13.820;2022-09-01T02:30:45;13.20;92.70
44843;DHT22;31884;52.538;13.820;2022-09-01T02:33:14;13.20;93.90
44843;DHT22;31884;52.538;13.820;2022-09-01T02:35:48;13.10;93.10
44843;DHT22;31884;52.538;13.820;2022-09-01T02:38:14;13.00;92.70
44843;DHT22;31884;52.538;13.820;2022-09-01T02:40:42;12.90;93.50
44843;DHT22;31884;52.538;13.820;2022-09-01T02:43:12;12.80;93.30
44843;DHT22;31884;52.538;13.820;2022-09-01T02:45:38;12.80;93.90
44843;DHT22;31884;52.538;13.820;2022-09-01T02:48:04;12.70;94.20
44843;DHT22;31884;52.538;13.820;2022-09-01T02:50:35;12.60;94.40
44843;DHT22;31884;52.538;13.820;2022-09-01T02:53:01;12.50;95.30
44843;DHT22;31884;52.538;13.820;2022-09-01T02:55:30;12.50;99.90
44843;DHT22;31884;52.538;13.820;2022-09-01T02:57:55;12.40;99.90
44843;DHT22;31884;52.538;13.820;2022-09-01T03:00:22;12.40;99.90
44843;DHT22;31884;52.538;13.820;2022-09-01T03:02:56;12.30;99.90
44843;DHT22;31884;52.538;13.820;2022-09-01T03:05:25;12.20;99.90
44843;DHT22;31884;52.538;13.820;2022-09-01T03:07:56;12.20;99.90
44843;DHT22;31884;52.538;13.820;2022-09-01T03:10:32;12.10;99.90
44843;DHT22;31884;52.538;13.820;2022-09-01T03:15:34;12.00;99.90
44843;DHT22;31884;52.538;13.820;2022-09-01T03:18:01;11.90;99.90
44843;DHT22;31884;52.538;13.820;2022-09-01T03:20:28;11.90;99.90
44843;DHT22;31884;52.538;13.820;2022-09-01T03:22:55;11.80;99.90
44843;DHT22;31884;52.538;13.820;2022-09-01T03:25:23;11.80;99.90
44843;DHT22;31884;52.538;13.820;2022-09-01T03:27:50;11.70;99.90
44843;DHT22;31884;52.538;13.820;2022-09-01T03:30:16;11.70;99.90
44843;DHT22;31884;52.538;13.820;2022-09-01T03:32:42;11.60;99.90
44843;DHT22;31884;52.538;13.820;2022-09-01T03:35:09;11.60;99.90
44843;DHT22;31884;52.538;13.820;2022-09-01T03:37:35;11.60;99.90
44843;DHT22;31884;52.538;13.820;2022-09-01T03:40:03;11.50;99.90
44843;DHT22;31884;52.538;13.820;2022-09-01T03:42:29;11.40;99.90
44843;DHT22;31884;52.538;13.820;2022-09-01T03:44:55;11.40;99.90
44843;DHT22;31884;52.538;13.820;2022-09-01T03:47:21;11.30;99.90
44843;DHT22;31884;52.538;13.820;2022-09-01T03:49:48;11.30;99.90
44843;DHT22;31884;52.538;13.820;2022-09-01T03:52:15;11.20;99.90
44843;DHT22;31884;52.538;13.820;2022-09-01T03:54:41;11.20;99.90
44843;DHT22;31884;52.538;13.820;2022-09-01T03:57:08;11.10;99.90
44843;DHT22;31884;52.538;13.820;2022-09-01T03:59:35;11.00;99.90
44843;DHT22;31884;52.538;13.820;2022-09-01T04:02:09;11.00;99.90
44843;DHT22;31884;52.538;13.820;2022-09-01T04:04:35;10.90;99.90
44843;DHT22;31884;52.538;13.820;2022-09-01T04:07:00;10.80;99.90
44843;DHT22;31884;52.538;13.820;2022-09-01T04:09:26;10.80;99.90
44843;DHT22;31884;52.538;13.820;2022-09-01T04:11:52;10.70;99.90
44843;DHT22;31884;52.538;13.820;2022-09-01T04:14:18;10.70;99.90
44843;DHT22;31884;52.538;13.820;2022-09-01T04:16:44;10.70;99.90
44843;DHT22;31884;52.538;13.820;2022-09-01T04:19:34;10.70;99.90
44843;DHT22;31884;52.538;13.820;2022-09-01T04:22:01;10.60;99.90
44843;DHT22;31884;52.538;13.820;2022-09-01T04:24:29;10.60;99.90
44843;DHT22;31884;52.538;13.820;2022-09-01T04:26:57;10.60;99.90
44843;DHT22;31884;52.538;13.820;2022-09-01T04:29:24;10.50;99.90
44843;DHT22;31884;52.538;13.820;2022-09-01T04:31:54;10.50;99.90
44843;DHT22;31884;52.538;13.820;2022-09-01T04:34:20;10.50;99.90
44843;DHT22;31884;52.538;13.820;2022-09-01T04:36:47;10.50;99.90
44843;DHT22;31884;52.538;13.820;2022-09-01T04:39:12;10.50;99.90
44843;DHT22;31884;52.538;13.820;2022-09-01T04:41:41;10.50;99.90
44843;DHT22;31884;52.538;13.820;2022-09-01T04:44:10;10.50;99.90
44843;DHT22;31884;52.538;13.820;2022-09-01T04:46:38;10.50;99.90
44843;DHT22;31884;52.538;13.820;2022-09-01T04:49:07;10.50;99.90
44843;DHT22;31884;52.538;13.820;2022-09-01T04:51:42;10.50;99.90
44843;DHT22;31884;52.538;13.820;2022-09-01T04:54:08;10.50;99.90
44843;DHT22;31884;52.538;13.820;2022-09-01T04:56:37;10.50;99.90
44843;DHT22;31884;52.538;13.820;2022-09-01T04:59:03;10.50;99.90
44843;DHT22;31884;52.538;13.820;2022-09-01T05:01:32;10.50;99.90
44843;DHT22;31884;52.538;13.820;2022-09-01T05:04:14;10.50;99.90
44843;DHT22;31884;52.538;13.820;2022-09-01T05:06:47;10.60;99.90
44843;DHT22;31884;52.538;13.820;2022-09-01T05:09:20;10.60;99.90
44843;DHT22;31884;52.538;13.820;2022-09-01T05:11:46;10.90;99.90
44843;DHT22;31884;52.538;13.820;2022-09-01T05:14:13;11.40;99.90
44843;DHT22;31884;52.538;13.820;2022-09-01T05:16:42;12.30;99.90
44843;DHT22;31884;52.538;13.820;2022-09-01T05:19:09;13.40;99.90
44843;DHT22;31884;52.538;13.820;2022-09-01T05:21:41;14.60;98.90
44843;DHT22;31884;52.538;13.820;2022-09-01T05:24:11;15.80;93.60
44843;DHT22;31884;52.538;13.820;2022-09-01T05:26:37;16.80;87.40
44843;DHT22;31884;52.538;13.820;2022-09-01T05:29:05;17.80;79.20
44843;DHT22;31884;52.538;13.820;2022-09-01T05:31:39;18.60;74.00
44843;DHT22;31884;52.538;13.820;2022-09-01T05:34:05;19.30;65.70
44843;DHT22;31884;52.538;13.820;2022-09-01T05:36:35;20.10;65.70
44843;DHT22;31884;52.538;13.820;2022-09-01T05:39:03;20.90;62.20
44843;DHT22;31884;52.538;13.820;2022-09-01T05:41:30;21.60;58.00
44843;DHT22;31884;52.538;13.820;2022-09-01T05:43:57;22.20;55.80
44843;DHT22;31884;52.538;13.820;2022-09-01T05:46:25;22.70;52.20
44843;DHT22;31884;52.538;13.820;2022-09-01T05:48:54;23.40;48.90
44843;DHT22;31884;52.538;13.820;2022-09-01T05:51:23;23.80;47.60
44843;DHT22;31884;52.538;13.820;2022-09-01T05:53:51;24.40;44.80
44843;DHT22;31884;52.538;13.820;2022-09-01T05:56:19;24.80;31.00
44843;DHT22;31884;52.538;13.820;2022-09-01T05:58:45;25.00;39.20
44843;DHT22;31884;52.538;13.820;2022-09-01T06:01:20;25.30;24.60
44843;DHT22;31884;52.538;13.820;2022-09-01T06:03:50;24.60;28.10
44843;DHT22;31884;52.538;13.820;2022-09-01T06:06:20;24.70;32.50
44843;DHT22;31884;52.538;13.820;2022-09-01T06:08:50;24.70;30.60
44843;DHT22;31884;52.538;13.820;2022-09-01T06:11:17;25.20;27.50
44843;DHT22;31884;52.538;13.820;2022-09-01T06:13:44;25.50;25.00
44843;DHT22;31884;52.538;13.820;2022-09-01T06:16:13;24.90;26.30
44843;DHT22;31884;52.538;13.820;2022-09-01T06:18:39;25.80;27.60
44843;DHT22;31884;52.538;13.820;2022-09-01T06:21:05;26.40;24.30
44843;DHT22;31884;52.538;13.820;2022-09-01T06:23:36;26.80;25.00
44843;DHT22;31884;52.538;13.820;2022-09-01T06:26:02;27.20;21.60
44843;DHT22;31884;52.538;13.820;2022-09-01T06:28:28;27.50;22.10
44843;DHT22;31884;52.538;13.820;2022-09-01T06:30:57;27.20;20.40
44843;DHT22;31884;52.538;13.820;2022-09-01T06:33:23;27.30;17.60
44843;DHT22;31884;52.538;13.820;2022-09-01T06:35:51;27.90;17.10
44843;DHT22;31884;52.538;13.820;2022-09-01T06:38:17;28.00;16.80
44843;DHT22;31884;52.538;13.820;2022-09-01T06:40:44;28.30;17.30
44843;DHT22;31884;52.538;13.820;2022-09-01T06:43:10;28.30;16.80
44843;DHT22;31884;52.538;13.820;2022-09-01T06:45:42;28.50;15.30
44843;DHT22;31884;52.538;13.820;2022-09-01T06:48:08;28.10;12.80
44843;DHT22;31884;52.538;13.820;2022-09-01T06:50:40;28.60;14.30
44843;DHT22;31884;52.538;13.820;2022-09-01T06:53:05;29.30;14.30
44843;DHT22;31884;52.538;13.820;2022-09-01T06:55:43;29.30;13.10
44843;DHT22;31884;52.538;13.820;2022-09-01T06:58:12;29.70;10.50
44843;DHT22;31884;52.538;13.820;2022-09-01T07:00:40;29.40;11.60
44843;DHT22;31884;52.538;13.820;2022-09-01T07:03:13;29.50;11.40
44843;DHT22;31884;52.538;13.820;2022-09-01T07:05:40;29.40;10.60
44843;DHT22;31884;52.538;13.820;2022-09-01T07:08:08;29.90;10.60
44843;DHT22;31884;52.538;13.820;2022-09-01T07:10:44;30.50;8.60
44843;DHT22;31884;52.538;13.820;2022-09-01T07:13:12;30.00;5.30
44843;DHT22;31884;52.538;13.820;2022-09-01T07:15:44;29.30;6.50
44843;DHT22;31884;52.538;13.820;2022-09-01T07:18:12;29.00;8.00
44843;DHT22;31884;52.538;13.820;2022-09-01T07:20:40;29.50;8.70
44843;DHT22;31884;52.538;13.820;2022-09-01T07:23:07;30.20;8.10
44843;DHT22;31884;52.538;13.820;2022-09-01T07:25:36;30.20;5.70
44843;DHT22;31884;52.538;13.820;2022-09-01T07:28:03;29.90;6.70
44843;DHT22;31884;52.538;13.820;2022-09-01T07:30:30;29.80;6.80
44843;DHT22;31884;52.538;13.820;2022-09-01T07:32:56;30.10;6.30
44843;DHT22;31884;52.538;13.820;2022-09-01T07:35:22;29.60;6.40
44843;DHT22;31884;52.538;13.820;2022-09-01T07:37:48;29.20;6.70
44843;DHT22;31884;52.538;13.820;2022-09-01T07:40:16;28.10;5.90
44843;DHT22;31884;52.538;13.820;2022-09-01T07:42:45;27.80;6.40
44843;DHT22;31884;52.538;13.820;2022-09-01T07:45:13;27.90;8.10
44843;DHT22;31884;52.538;13.820;2022-09-01T07:47:39;27.90;8.10
44843;DHT22;31884;52.538;13.820;2022-09-01T07:50:07;27.80;7.80
44843;DHT22;31884;52.538;13.820;2022-09-01T07:52:37;27.20;7.30
44843;DHT22;31884;52.538;13.820;2022-09-01T07:55:11;27.40;8.60
44843;DHT22;31884;52.538;13.820;2022-09-01T07:57:39;27.40;8.50
44843;DHT22;31884;52.538;13.820;2022-09-01T08:00:07;27.30;8.90
44843;DHT22;31884;52.538;13.820;2022-09-01T08:02:33;27.20;7.10
44843;DHT22;31884;52.538;13.820;2022-09-01T08:04:59;26.60;9.00
44843;DHT22;31884;52.538;13.820;2022-09-01T08:07:24;26.60;8.80
44843;DHT22;31884;52.538;13.820;2022-09-01T08:09:50;26.70;9.50
44843;DHT22;31884;52.538;13.820;2022-09-01T08:12:16;26.60;10.40
44843;DHT22;31884;52.538;13.820;2022-09-01T08:14:41;26.30;9.90
44843;DHT22;31884;52.538;13.820;2022-09-01T08:17:07;25.60;8.90
44843;DHT22;31884;52.538;13.820;2022-09-01T08:19:32;25.20;10.80
44843;DHT22;31884;52.538;13.820;2022-09-01T08:21:58;24.80;12.00
44843;DHT22;31884;52.538;13.820;2022-09-01T08:24:23;24.60;12.20
44843;DHT22;31884;52.538;13.820;2022-09-01T08:26:49;23.70;13.30
44843;DHT22;31884;52.538;13.820;2022-09-01T08:29:14;23.70;13.80
44843;DHT22;31884;52.538;13.820;2022-09-01T08:31:40;23.90;14.00
44843;DHT22;31884;52.538;13.820;2022-09-01T08:34:05;23.90;14.60
44843;DHT22;31884;52.538;13.820;2022-09-01T08:36:31;24.00;14.70
44843;DHT22;31884;52.538;13.820;2022-09-01T08:38:57;24.20;14.10
44843;DHT22;31884;52.538;13.820;2022-09-01T08:44:20;23.10;13.50
44843;DHT22;31884;52.538;13.820;2022-09-01T08:46:58;23.20;13.80
44843;DHT22;31884;52.538;13.820;2022-09-01T08:49:26;23.10;14.20
44843;DHT22;31884;52.538;13.820;2022-09-01T08:52:18;23.30;14.20
44843;DHT22;31884;52.538;13.820;2022-09-01T08:55:09;23.40;14.30
44843;DHT22;31884;52.538;13.820;2022-09-01T08:57:41;23.00;14.90
44843;DHT22;31884;52.538;13.820;2022-09-01T09:00:11;22.50;15.60
44843;DHT22;31884;52.538;13.820;2022-09-01T09:09:04;23.50;13.40
44843;DHT22;31884;52.538;13.820;2022-09-01T09:16:53;23.80;12.30
44843;DHT22;31884;52.538;13.820;2022-09-01T09:19:29;23.80;12.00
44843;DHT22;31884;52.538;13.820;2022-09-01T09:21:58;23.80;10.30
44843;DHT22;31884;52.538;13.820;2022-09-01T09:24:49;23.70;11.80
44843;DHT22;31884;52.538;13.820;2022-09-01T09:29:57;23.70;10.50
44843;DHT22;31884;52.538;13.820;2022-09-01T09:32:52;23.50;11.10
44843;DHT22;31884;52.538;13.820;2022-09-01T09:37:51;23.60;10.90
44843;DHT22;31884;52.538;13.820;2022-09-01T09:40:26;23.80;10.60
44843;DHT22;31884;52.538;13.820;2022-09-01T09:45:38;23.70;11.10
44843;DHT22;31884;52.538;13.820;2022-09-01T09:48:26;23.30;11.70
44843;DHT22;31884;52.538;13.820;2022-09-01T09:50:51;23.40;11.70
44843;DHT22;31884;52.538;13.820;2022-09-01T09:55:57;23.10;12.00
44843;DHT22;31884;52.538;13.820;2022-09-01T09:58:27;23.00;12.10
44843;DHT22;31884;52.538;13.820;2022-09-01T10:01:01;22.80;11.90
44843;DHT22;31884;52.538;13.820;2022-09-01T10:03:45;22.20;13.20
44843;DHT22;31884;52.538;13.820;2022-09-01T10:06:37;22.30;14.40
44843;DHT22;31884;52.538;13.820;2022-09-01T10:09:09;22.40;14.20
44843;DHT22;31884;52.538;13.820;2022-09-01T10:11:42;22.50;14.00
44843;DHT22;31884;52.538;13.820;2022-09-01T10:14:16;22.70;14.10
44843;DHT22;31884;52.538;13.820;2022-09-01T10:16:46;22.80;12.10
44843;DHT22;31884;52.538;13.820;2022-09-01T10:19:14;23.00;12.60
44843;DHT22;31884;52.538;13.820;2022-09-01T10:21:42;22.90;12.40
44843;DHT22;31884;52.538;13.820;2022-09-01T10:26:56;22.70;13.20
44843;DHT22;31884;52.538;13.820;2022-09-01T10:29:30;22.70;12.40
44843;DHT22;31884;52.538;13.820;2022-09-01T10:31:59;22.70;13.60
44843;DHT22;31884;52.538;13.820;2022-09-01T10:34:29;22.50;13.40
44843;DHT22;31884;52.538;13.820;2022-09-01T10:36:57;22.30;13.00
44843;DHT22;31884;52.538;13.820;2022-09-01T10:39:23;22.10;13.20
44843;DHT22;31884;52.538;13.820;2022-09-01T10:41:50;22.10;13.40
44843;DHT22;31884;52.538;13.820;2022-09-01T10:44:27;22.20;13.10
44843;DHT22;31884;52.538;13.820;2022-09-01T10:47:07;22.20;13.00
44843;DHT22;31884;52.538;13.820;2022-09-01T10:51:59;22.30;12.90
44843;DHT22;31884;52.538;13.820;2022-09-01T10:57:30;22.30;12.50
44843;DHT22;31884;52.538;13.820;2022-09-01T11:13:45;21.10;14.60
44843;DHT22;31884;52.538;13.820;2022-09-01T11:18:51;21.00;13.40
44843;DHT22;31884;52.538;13.820;2022-09-01T11:21:26;21.10;13.60
44843;DHT22;31884;52.538;13.820;2022-09-01T11:26:55;21.50;13.20
44843;DHT22;31884;52.538;13.820;2022-09-01T11:29:50;21.80;12.20
44843;DHT22;31884;52.538;13.820;2022-09-01T11:32:17;22.00;11.50
44843;DHT22;31884;52.538;13.820;2022-09-01T11:34:45;22.00;10.40
44843;DHT22;31884;52.538;13.820;2022-09-01T11:37:15;21.80;10.40
44843;DHT22;31884;52.538;13.820;2022-09-01T11:39:47;21.70;11.40
44843;DHT22;31884;52.538;13.820;2022-09-01T11:42:20;21.70;11.30
44843;DHT22;31884;52.538;13.820;2022-09-01T11:47:41;21.70;11.20
44843;DHT22;31884;52.538;13.820;2022-09-01T11:50:22;21.80;11.80
44843;DHT22;31884;52.538;13.820;2022-09-01T11:52:57;21.90;11.10
44843;DHT22;31884;52.538;13.820;2022-09-01T11:55:33;21.90;10.80
44843;DHT22;31884;52.538;13.820;2022-09-01T11:57:59;21.80;9.80
44843;DHT22;31884;52.538;13.820;2022-09-01T12:00:43;22.00;10.40
44843;DHT22;31884;52.538;13.820;2022-09-01T12:03:26;22.30;7.80
44843;DHT22;31884;52.538;13.820;2022-09-01T12:06:03;22.50;7.70
44843;DHT22;31884;52.538;13.820;2022-09-01T12:08:33;22.50;8.40
44843;DHT22;31884;52.538;13.820;2022-09-01T12:13:31;22.40;9.10
44843;DHT22;31884;52.538;13.820;2022-09-01T12:15:59;22.10;8.80
44843;DHT22;31884;52.538;13.820;2022-09-01T12:18:31;21.90;8.70
44843;DHT22;31884;52.538;13.820;2022-09-01T12:20:59;21.90;9.60
44843;DHT22;31884;52.538;13.820;2022-09-01T12:23:39;22.00;9.40
44843;DHT22;31884;52.538;13.820;2022-09-01T12:26:11;22.00;9.40
44843;DHT22;31884;52.538;13.820;2022-09-01T12:28:39;22.00;8.40
44843;DHT22;31884;52.538;13.820;2022-09-01T12:31:12;22.00;9.00
44843;DHT22;31884;52.538;13.820;2022-09-01T12:33:40;22.00;9.30
44843;DHT22;31884;52.538;13.820;2022-09-01T12:36:23;22.10;9.50
44843;DHT22;31884;52.538;13.820;2022-09-01T12:38:50;22.30;9.70
44843;DHT22;31884;52.538;13.820;2022-09-01T12:41:32;22.30;9.70
44843;DHT22;31884;52.538;13.820;2022-09-01T12:44:24;22.40;9.90
44843;DHT22;31884;52.538;13.820;2022-09-01T12:46:50;22.40;9.40
44843;DHT22;31884;52.538;13.820;2022-09-01T12:49:25;22.40;9.60
44843;DHT22;31884;52.538;13.820;2022-09-01T12:54:47;22.20;8.80
44843;DHT22;31884;52.538;13.820;2022-09-01T12:57:26;22.30;9.10
44843;DHT22;31884;52.538;13.820;2022-09-01T13:02:49;22.30;7.10
44843;DHT22;31884;52.538;13.820;2022-09-01T13:07:53;22.40;7.10
44843;DHT22;31884;52.538;13.820;2022-09-01T13:10:20;22.40;8.10
44843;DHT22;31884;52.538;13.820;2022-09-01T13:12:46;22.20;7.70
44843;DHT22;31884;52.538;13.820;2022-09-01T13:15:12;22.00;8.60
44843;DHT22;31884;52.538;13.820;2022-09-01T13:17:37;21.90;9.50
44843;DHT22;31884;52.538;13.820;2022-09-01T13:20:04;21.70;10.30
44843;DHT22;31884;52.538;13.820;2022-09-01T13:22:30;21.40;10.40
44843;DHT22;31884;52.538;13.820;2022-09-01T13:24:56;21.30;10.40
44843;DHT22;31884;52.538;13.820;2022-09-01T13:27:21;21.30;10.40
44843;DHT22;31884;52.538;13.820;2022-09-01T13:29:48;21.30;10.60
44843;DHT22;31884;52.538;13.820;2022-09-01T13:32:14;21.40;10.60
44843;DHT22;31884;52.538;13.820;2022-09-01T13:34:39;21.60;10.10
44843;DHT22;31884;52.538;13.820;2022-09-01T13:37:05;21.80;9.20
44843;DHT22;31884;52.538;13.820;2022-09-01T13:39:31;22.00;9.30
44843;DHT22;31884;52.538;13.820;2022-09-01T13:41:56;22.10;8.30
44843;DHT22;31884;52.538;13.820;2022-09-01T13:44:22;22.20;8.60
44843;DHT22;31884;52.538;13.820;2022-09-01T13:46:47;22.30;8.10
44843;DHT22;31884;52.538;13.820;2022-09-01T13:49:13;22.30;8.00
44843;DHT22;31884;52.538;13.820;2022-09-01T13:51:38;22.30;7.80
44843;DHT22;31884;52.538;13.820;2022-09-01T13:54:04;22.30;8.10
44843;DHT22;31884;52.538;13.820;2022-09-01T13:56:30;22.10;8.20
44843;DHT22;31884;52.538;13.820;2022-09-01T13:58:55;22.00;9.40
44843;DHT22;31884;52.538;13.820;2022-09-01T14:01:21;21.80;10.60
44843;DHT22;31884;52.538;13.820;2022-09-01T14:03:47;21.70;10.50
44843;DHT22;31884;52.538;13.820;2022-09-01T14:06:13;21.70;10.80
44843;DHT22;31884;52.538;13.820;2022-09-01T14:08:39;21.70;11.40
44843;DHT22;31884;52.538;13.820;2022-09-01T14:11:05;21.80;12.10
44843;DHT22;31884;52.538;13.820;2022-09-01T14:13:32;21.70;12.10
44843;DHT22;31884;52.538;13.820;2022-09-01T14:15:58;21.60;12.50
44843;DHT22;31884;52.538;13.820;2022-09-01T14:18:24;21.60;12.70
44843;DHT22;31884;52.538;13.820;2022-09-01T14:20:53;21.70;12.80
44843;DHT22;31884;52.538;13.820;2022-09-01T14:23:21;21.70;13.50
44843;DHT22;31884;52.538;13.820;2022-09-01T14:25:50;21.70;14.30
44843;DHT22;31884;52.538;13.820;2022-09-01T14:28:16;21.80;14.00
44843;DHT22;31884;52.538;13.820;2022-09-01T14:30:42;21.90;13.90
44843;DHT22;31884;52.538;13.820;2022-09-01T14:33:09;22.00;15.20
44843;DHT22;31884;52.538;13.820;2022-09-01T14:35:38;21.80;13.90
44843;DHT22;31884;52.538;13.820;2022-09-01T14:38:03;21.70;14.60
44843;DHT22;31884;52.538;13.820;2022-09-01T14:40:32;21.50;14.70
44843;DHT22;31884;52.538;13.820;2022-09-01T14:42:58;21.30;14.90
44843;DHT22;31884;52.538;13.820;2022-09-01T14:45:26;21.20;15.00
44843;DHT22;31884;52.538;13.820;2022-09-01T14:47:54;21.10;15.90
44843;DHT22;31884;52.538;13.820;2022-09-01T14:50:21;21.00;17.10
44843;DHT22;31884;52.538;13.820;2022-09-01T14:52:49;20.80;17.60
44843;DHT22;31884;52.538;13.820;2022-09-01T14:55:15;20.70;18.50
44843;DHT22;31884;52.538;13.820;2022-09-01T14:57:40;20.60;18.50
44843;DHT22;31884;52.538;13.820;2022-09-01T15:00:08;20.60;18.30
44843;DHT22;31884;52.538;13.820;2022-09-01T15:02:35;20.60;18.80
44843;DHT22;31884;52.538;13.820;2022-09-01T15:05:01;20.50;18.50
44843;DHT22;31884;52.538;13.820;2022-09-01T15:07:27;20.60;18.90
44843;DHT22;31884;52.538;13.820;2022-09-01T15:09:52;20.60;18.60
44843;DHT22;31884;52.538;13.820;2022-09-01T15:12:18;20.60;19.50
44843;DHT22;31884;52.538;13.820;2022-09-01T15:14:44;20.60;18.70
44843;DHT22;31884;52.538;13.820;2022-09-01T15:17:09;20.60;19.10
44843;DHT22;31884;52.538;13.820;2022-09-01T15:19:35;20.50;18.80
44843;DHT22;31884;52.538;13.820;2022-09-01T15:22:01;20.50;18.60
44843;DHT22;31884;52.538;13.820;2022-09-01T15:24:28;20.50;18.90
44843;DHT22;31884;52.538;13.820;2022-09-01T15:26:54;20.50;18.50
44843;DHT22;31884;52.538;13.820;2022-09-01T15:29:19;20.50;18.80
44843;DHT22;31884;52.538;13.820;2022-09-01T15:31:45;20.40;19.10
44843;DHT22;31884;52.538;13.820;2022-09-01T15:34:11;20.50;19.00
44843;DHT22;31884;52.538;13.820;2022-09-01T15:36:39;20.50;18.90
44843;DHT22;31884;52.538;13.820;2022-09-01T15:39:05;20.60;19.00
44843;DHT22;31884;52.538;13.820;2022-09-01T15:41:32;20.60;19.30
44843;DHT22;31884;52.538;13.820;2022-09-01T15:44:00;20.50;19.30
44843;DHT22;31884;52.538;13.820;2022-09-01T15:46:25;20.50;19.70
44843;DHT22;31884;52.538;13.820;2022-09-01T15:48:59;20.40;19.40
44843;DHT22;31884;52.538;13.820;2022-09-01T15:51:28;20.40;19.80
44843;DHT22;31884;52.538;13.820;2022-09-01T15:53:58;20.40;19.60
44843;DHT22;31884;52.538;13.820;2022-09-01T15:56:24;20.40;19.50
44843;DHT22;31884;52.538;13.820;2022-09-01T15:58:49;20.40;19.50
44843;DHT22;31884;52.538;13.820;2022-09-01T16:01:16;20.40;20.00
44843;DHT22;31884;52.538;13.820;2022-09-01T16:03:42;20.30;19.70
44843;DHT22;31884;52.538;13.820;2022-09-01T16:06:08;20.30;19.80
44843;DHT22;31884;52.538;13.820;2022-09-01T16:08:35;20.30;19.60
44843;DHT22;31884;52.538;13.820;2022-09-01T16:11:00;20.20;19.40
44843;DHT22;31884;52.538;13.820;2022-09-01T16:13:35;20.20;19.40
44843;DHT22;31884;52.538;13.820;2022-09-01T16:16:27;20.10;20.30
44843;DHT22;31884;52.538;13.820;2022-09-01T16:22:09;19.90;20.70
44843;DHT22;31884;52.538;13.820;2022-09-01T16:24:45;19.90;21.80
44843;DHT22;31884;52.538;13.820;2022-09-01T16:27:14;19.80;20.80
44843;DHT22;31884;52.538;13.820;2022-09-01T16:29:46;19.80;20.80
44843;DHT22;31884;52.538;13.820;2022-09-01T16:32:14;19.70;21.70
44843;DHT22;31884;52.538;13.820;2022-09-01T16:34:42;19.60;21.50
44843;DHT22;31884;52.538;13.820;2022-09-01T16:42:52;19.50;22.30
44843;DHT22;31884;52.538;13.820;2022-09-01T16:45:42;19.50;23.50
44843;DHT22;31884;52.538;13.820;2022-09-01T16:56:28;19.30;22.70